createdAt,value
2023-01-17T00:02:21.574Z,71.64
2023-01-17T00:05:07.011Z,71.66
2023-01-17T00:07:52.388Z,71.87
2023-01-17T00:10:22.310Z,71.86
2023-01-17T00:12:59.489Z,72.30
2023-01-17T00:15:28.610Z,72.36
2023-01-17T00:17:56.434Z,72.55
2023-01-17T00:20:45.760Z,72.85
2023-01-17T00:24:00.692Z,72.75
2023-01-17T00:26:29.737Z,73.00
2023-01-17T00:28:56.579Z,73.63
2023-01-17T00:31:23.481Z,73.91
2023-01-17T00:33:50.405Z,73.80
2023-01-17T00:36:17.272Z,73.69
2023-01-17T00:38:44.213Z,73.63
2023-01-17T00:41:13.311Z,73.63
2023-01-17T00:43:59.305Z,73.81
2023-01-17T00:46:45.442Z,73.45
2023-01-17T00:49:30.792Z,73.08
2023-01-17T00:52:16.217Z,72.59
2023-01-17T00:55:01.561Z,72.66
2023-01-17T00:57:47.038Z,72.35
2023-01-17T01:00:33.203Z,72.46
2023-01-17T01:03:18.655Z,72.18
2023-01-17T01:06:04.169Z,72.28
2023-01-17T01:08:49.443Z,71.95
2023-01-17T01:11:38.213Z,71.45
2023-01-17T01:14:26.587Z,71.39
2023-01-17T01:17:11.981Z,71.52
2023-01-17T01:19:57.211Z,71.55
2023-01-17T01:22:42.685Z,71.54
2023-01-17T01:25:27.973Z,71.71
2023-01-17T01:28:24.583Z,71.57
2023-01-17T01:31:10.021Z,72.00
2023-01-17T01:33:37.075Z,72.07
2023-01-17T01:36:07.044Z,72.33
2023-01-17T01:38:34.005Z,72.27
2023-01-17T01:41:01.020Z,72.71
2023-01-17T01:43:51.032Z,72.45
2023-01-17T01:46:31.324Z,72.44
2023-01-17T01:49:02.106Z,71.88
2023-01-17T01:51:42.374Z,72.41
2023-01-17T01:54:23.339Z,72.22
2023-01-17T01:56:51.889Z,72.44
2023-01-17T01:59:20.661Z,72.86
2023-01-17T02:01:49.466Z,73.10
2023-01-17T02:04:18.316Z,73.02
2023-01-17T02:06:53.562Z,73.25
2023-01-17T02:09:20.624Z,72.96
2023-01-17T02:11:49.168Z,72.81
2023-01-17T02:14:21.529Z,72.82
2023-01-17T02:16:54.524Z,72.94
2023-01-17T02:19:27.300Z,72.74
2023-01-17T02:22:09.414Z,73.02
2023-01-17T02:24:51.481Z,73.05
2023-01-17T02:27:26.326Z,73.09
2023-01-17T02:30:18.291Z,73.14
2023-01-17T02:33:27.096Z,73.12
2023-01-17T02:36:03.553Z,73.14
2023-01-17T02:38:36.702Z,73.18
2023-01-17T02:41:13.329Z,73.00
2023-01-17T02:43:40.898Z,72.69
2023-01-17T02:46:09.820Z,72.99
2023-01-17T02:48:38.087Z,73.12
2023-01-17T02:51:26.487Z,73.20
2023-01-17T02:54:08.688Z,73.33
2023-01-17T02:57:13.422Z,73.28
2023-01-17T02:59:53.185Z,73.90
2023-01-17T03:02:26.239Z,73.91
2023-01-17T03:05:22.655Z,73.83
2023-01-17T03:07:51.684Z,74.04
2023-01-17T03:10:20.472Z,74.21
2023-01-17T03:12:47.600Z,74.15
2023-01-17T03:15:17.106Z,73.69
2023-01-17T03:17:48.773Z,74.02
2023-01-17T03:20:16.305Z,73.80
2023-01-17T03:22:43.293Z,73.73
2023-01-17T03:25:10.370Z,73.51
2023-01-17T03:27:37.307Z,73.61
2023-01-17T03:30:04.875Z,73.48
2023-01-17T03:32:31.817Z,73.37
2023-01-17T03:34:58.708Z,73.14
2023-01-17T03:37:25.829Z,73.17
2023-01-17T03:39:52.762Z,73.35
2023-01-17T03:42:19.713Z,73.14
2023-01-17T03:44:46.644Z,73.30
2023-01-17T03:47:13.615Z,73.34
2023-01-17T03:49:40.669Z,73.24
2023-01-17T03:52:07.656Z,72.83
2023-01-17T03:54:34.586Z,73.05
2023-01-17T03:57:01.515Z,73.30
2023-01-17T03:59:28.509Z,73.25
2023-01-17T04:01:55.481Z,73.26
2023-01-17T04:04:22.572Z,73.75
2023-01-17T04:06:49.512Z,73.84
2023-01-17T04:09:16.470Z,73.50
2023-01-17T04:11:43.478Z,73.06
2023-01-17T04:14:10.459Z,72.41
2023-01-17T04:16:38.233Z,72.35
2023-01-17T04:19:05.299Z,72.18
2023-01-17T04:21:32.308Z,72.04
2023-01-17T04:23:59.356Z,71.78
2023-01-17T04:26:26.354Z,71.69
2023-01-17T04:28:53.351Z,71.94
2023-01-17T04:31:20.428Z,71.38
2023-01-17T04:33:47.434Z,71.29
2023-01-17T04:36:14.386Z,70.82
2023-01-17T04:38:41.338Z,70.92
2023-01-17T04:41:08.290Z,70.78
2023-01-17T04:43:35.629Z,70.58
2023-01-17T04:46:04.385Z,70.56
2023-01-17T04:48:31.477Z,70.82
2023-01-17T04:51:03.340Z,71.00
2023-01-17T04:53:30.713Z,71.06
2023-01-17T04:55:57.823Z,71.35
2023-01-17T04:58:24.838Z,71.13
2023-01-17T05:00:52.231Z,71.06
2023-01-17T05:03:21.089Z,70.68
2023-01-17T05:05:48.483Z,70.39
2023-01-17T05:08:15.453Z,70.09
2023-01-17T05:10:45.759Z,70.13
2023-01-17T05:13:12.779Z,69.84
2023-01-17T05:15:39.946Z,69.74
2023-01-17T05:18:11.094Z,70.01
2023-01-17T05:20:38.031Z,69.97
2023-01-17T05:23:05.154Z,69.89
2023-01-17T05:25:32.954Z,69.81
2023-01-17T05:28:00.314Z,70.31
2023-01-17T05:30:32.764Z,70.71
2023-01-17T05:32:59.773Z,70.34
2023-01-17T05:35:29.738Z,70.82
2023-01-17T05:37:56.750Z,71.04
2023-01-17T05:40:30.294Z,71.12
2023-01-17T05:42:58.685Z,70.92
2023-01-17T05:45:27.608Z,70.87
2023-01-17T05:47:55.917Z,71.10
2023-01-17T05:50:26.244Z,71.56
2023-01-17T05:52:58.980Z,71.80
2023-01-17T05:55:27.668Z,72.29
2023-01-17T05:57:55.200Z,72.43
2023-01-17T06:00:23.055Z,72.69
2023-01-17T06:02:53.103Z,73.18
2023-01-17T06:05:20.798Z,73.45
2023-01-17T06:07:48.879Z,73.98
2023-01-17T06:10:17.544Z,74.32
2023-01-17T06:12:45.442Z,74.60
2023-01-17T06:15:14.003Z,75.26
2023-01-17T06:17:41.087Z,75.93
2023-01-17T06:20:09.910Z,75.41
2023-01-17T06:22:37.110Z,75.61
2023-01-17T06:25:04.622Z,75.63
2023-01-17T06:27:31.616Z,75.85
2023-01-17T06:29:58.518Z,75.57
2023-01-17T06:32:25.487Z,75.72
2023-01-17T06:34:52.447Z,75.71
2023-01-17T06:37:19.423Z,75.80
2023-01-17T06:39:46.608Z,75.83
2023-01-17T06:42:13.613Z,76.13
2023-01-17T06:44:40.595Z,76.34
2023-01-17T06:47:07.648Z,76.43
2023-01-17T06:49:34.553Z,76.75
2023-01-17T06:52:01.537Z,77.13
2023-01-17T06:54:28.530Z,77.45
2023-01-17T06:56:55.446Z,77.55
2023-01-17T06:59:22.344Z,77.37
2023-01-17T07:01:49.298Z,77.03
2023-01-17T07:04:16.349Z,76.92
2023-01-17T07:06:43.915Z,76.75
2023-01-17T07:09:11.023Z,76.50
2023-01-17T07:11:37.925Z,76.18
2023-01-17T07:14:05.136Z,75.85
2023-01-17T07:16:33.557Z,75.60
2023-01-17T07:19:00.658Z,75.21
2023-01-17T07:21:27.626Z,74.72
2023-01-17T07:23:55.019Z,74.39
2023-01-17T07:26:21.975Z,74.38
2023-01-17T07:28:48.910Z,74.63
2023-01-17T07:31:15.903Z,74.15
2023-01-17T07:33:42.907Z,73.61
2023-01-17T07:36:10.195Z,73.35
2023-01-17T07:38:37.316Z,73.18
2023-01-17T07:41:04.438Z,72.81
2023-01-17T07:43:31.611Z,72.89
2023-01-17T07:46:01.347Z,73.05
2023-01-17T07:48:30.278Z,73.19
2023-01-17T07:50:58.180Z,73.07
2023-01-17T07:53:27.129Z,72.71
2023-01-17T07:55:54.474Z,72.80
2023-01-17T07:58:21.785Z,72.42
2023-01-17T08:00:48.933Z,72.49
2023-01-17T08:03:17.287Z,72.57
2023-01-17T08:05:54.965Z,72.55
2023-01-17T08:08:21.966Z,72.61
2023-01-17T08:10:50.923Z,72.50
2023-01-17T08:13:17.927Z,72.52
2023-01-17T08:15:48.379Z,72.54
2023-01-17T08:18:16.480Z,72.44
2023-01-17T08:20:44.370Z,72.42
2023-01-17T08:23:11.875Z,72.08
2023-01-17T08:25:40.054Z,71.74
2023-01-17T08:28:07.035Z,71.45
2023-01-17T08:30:34.669Z,71.15
2023-01-17T08:33:01.628Z,70.45
2023-01-17T08:35:28.718Z,70.23
2023-01-17T08:37:55.963Z,70.05
2023-01-17T08:40:23.494Z,69.48
2023-01-17T08:42:59.243Z,69.38
2023-01-17T08:45:27.279Z,68.74
2023-01-17T08:47:54.640Z,67.95
2023-01-17T08:50:21.650Z,67.61
2023-01-17T08:52:49.793Z,67.80
2023-01-17T08:55:17.220Z,67.85
2023-01-17T08:57:44.200Z,68.22
2023-01-17T09:00:11.560Z,68.38
2023-01-17T09:02:38.511Z,67.86
2023-01-17T09:05:06.155Z,67.63
2023-01-17T09:07:33.165Z,67.76
2023-01-17T09:10:00.223Z,67.67
2023-01-17T09:12:31.699Z,67.72
2023-01-17T09:14:58.652Z,67.36
2023-01-17T09:17:25.770Z,67.44
2023-01-17T09:19:52.711Z,67.41
2023-01-17T09:22:19.783Z,67.44
2023-01-17T09:24:46.910Z,67.21
2023-01-17T09:27:13.890Z,66.41
2023-01-17T09:29:40.913Z,65.65
2023-01-17T09:32:07.922Z,65.31
2023-01-17T09:34:34.882Z,64.99
2023-01-17T09:37:01.864Z,64.92
2023-01-17T09:39:28.770Z,64.89
2023-01-17T09:42:15.999Z,64.93
2023-01-17T09:44:47.028Z,64.41
2023-01-17T09:47:35.846Z,63.76
2023-01-17T09:50:16.602Z,63.74
2023-01-17T09:52:44.271Z,64.07
2023-01-17T09:55:16.024Z,63.85
2023-01-17T09:58:12.903Z,64.00
2023-01-17T10:00:57.456Z,64.22
2023-01-17T10:03:55.815Z,63.83
2023-01-17T10:06:25.682Z,62.93
2023-01-17T10:09:07.543Z,62.56
2023-01-17T10:11:38.343Z,57.75
2023-01-17T10:14:11.328Z,56.36
2023-01-17T10:16:53.562Z,56.58
2023-01-17T10:19:44.921Z,57.05
2023-01-17T10:22:41.561Z,55.14
2023-01-17T10:25:15.652Z,54.35
2023-01-17T10:27:59.768Z,55.11
2023-01-17T10:30:36.135Z,53.69
2023-01-17T10:33:14.427Z,53.16
2023-01-17T10:35:59.230Z,52.40
2023-01-17T10:38:33.458Z,49.33
2023-01-17T10:41:06.942Z,50.71
2023-01-17T10:43:47.300Z,52.12
2023-01-17T10:46:18.562Z,51.06
2023-01-17T10:48:49.469Z,47.35
2023-01-17T10:51:42.491Z,45.84
2023-01-17T10:54:25.038Z,47.43
2023-01-17T10:56:52.119Z,47.88
2023-01-17T10:59:33.804Z,47.94
2023-01-17T11:02:06.960Z,46.96
2023-01-17T11:04:41.376Z,47.01
2023-01-17T11:07:25.957Z,46.87
2023-01-17T11:09:55.203Z,47.40
2023-01-17T11:12:44.549Z,48.34
2023-01-17T11:15:11.427Z,48.46
2023-01-17T11:17:46.046Z,49.43
2023-01-17T11:20:12.924Z,48.94
2023-01-17T11:22:42.693Z,49.21
2023-01-17T11:25:21.639Z,49.88
2023-01-17T11:28:04.550Z,49.13
2023-01-17T11:30:31.839Z,48.89
2023-01-17T11:33:00.295Z,48.61
2023-01-17T11:35:44.581Z,48.96
2023-01-17T11:38:19.089Z,48.85
2023-01-17T11:40:48.256Z,49.02
2023-01-17T11:43:24.314Z,48.70
2023-01-17T11:46:18.263Z,47.99
2023-01-17T11:48:55.860Z,47.51
2023-01-17T11:51:31.110Z,47.48
2023-01-17T11:54:42.086Z,47.64
2023-01-17T11:57:21.183Z,47.84
2023-01-17T11:59:48.782Z,47.99
2023-01-17T12:02:45.221Z,48.00
2023-01-17T12:05:39.404Z,47.65
2023-01-17T12:08:24.941Z,47.07
2023-01-17T12:11:01.128Z,46.88
2023-01-17T12:14:00.282Z,47.05
2023-01-17T12:16:48.644Z,47.64
2023-01-17T12:19:48.407Z,47.70
2023-01-17T12:22:54.161Z,47.53
2023-01-17T12:25:28.034Z,47.89
2023-01-17T12:28:25.841Z,48.72
2023-01-17T12:31:07.955Z,48.90
2023-01-17T12:33:52.913Z,48.45
2023-01-17T12:36:36.809Z,47.97
2023-01-17T12:39:09.598Z,47.46
2023-01-17T12:41:41.941Z,46.84
2023-01-17T12:44:13.140Z,46.81
2023-01-17T12:46:48.495Z,46.98
2023-01-17T12:49:38.444Z,46.97
2023-01-17T12:52:25.642Z,47.18
2023-01-17T12:55:00.099Z,47.45
2023-01-17T12:57:33.359Z,47.62
2023-01-17T13:00:19.796Z,47.05
2023-01-17T13:03:01.364Z,46.56
2023-01-17T13:05:41.390Z,46.39
2023-01-17T13:08:14.440Z,46.39
2023-01-17T13:10:55.221Z,46.10
2023-01-17T13:13:25.596Z,46.01
2023-01-17T13:16:36.274Z,45.75
2023-01-17T13:19:16.855Z,45.95
2023-01-17T13:21:46.939Z,46.59
2023-01-17T13:24:31.002Z,47.07
2023-01-17T13:27:31.938Z,47.40
2023-01-17T13:30:19.053Z,47.93
2023-01-17T13:33:23.023Z,48.37
2023-01-17T13:36:18.712Z,48.31
2023-01-17T13:39:07.087Z,47.88
2023-01-17T13:41:34.063Z,48.66
2023-01-17T13:44:22.201Z,49.07
2023-01-17T13:47:00.451Z,49.96
2023-01-17T13:49:36.411Z,50.48
2023-01-17T13:52:12.010Z,50.87
2023-01-17T13:54:48.927Z,50.96
2023-01-17T13:57:26.340Z,51.14
2023-01-17T13:59:56.569Z,51.11
2023-01-17T14:02:32.550Z,50.83
2023-01-17T14:05:22.522Z,50.65
2023-01-17T14:08:02.063Z,50.35
2023-01-17T14:10:32.058Z,50.57
2023-01-17T14:13:00.172Z,51.04
2023-01-17T14:15:29.394Z,51.49
2023-01-17T14:18:01.086Z,51.56
2023-01-17T14:20:46.390Z,51.81
2023-01-17T14:23:34.631Z,52.34
2023-01-17T14:26:18.175Z,52.76
2023-01-17T14:28:45.138Z,52.60
2023-01-17T14:31:15.075Z,52.97
2023-01-17T14:33:42.189Z,53.28
2023-01-17T14:36:22.228Z,53.44
2023-01-17T14:38:49.224Z,53.93
2023-01-17T14:41:23.195Z,54.26
2023-01-17T14:43:51.303Z,54.79
2023-01-17T14:46:31.731Z,55.18
2023-01-17T14:49:05.257Z,55.30
2023-01-17T14:51:34.674Z,55.66
2023-01-17T14:54:05.001Z,55.81
2023-01-17T14:56:32.560Z,56.01
2023-01-17T14:59:16.564Z,56.29
2023-01-17T15:02:06.270Z,57.72
2023-01-17T15:04:38.580Z,59.21
2023-01-17T15:07:06.214Z,60.49
2023-01-17T15:09:36.576Z,62.55
2023-01-17T15:12:07.313Z,63.64
2023-01-17T15:14:37.883Z,64.35
2023-01-17T15:17:10.058Z,63.92
2023-01-17T15:19:42.242Z,64.81
2023-01-17T15:22:10.165Z,65.51
2023-01-17T15:24:41.622Z,65.34
2023-01-17T15:27:14.761Z,65.54
2023-01-17T15:29:43.757Z,65.20
2023-01-17T15:32:18.730Z,65.64
2023-01-17T15:34:48.429Z,66.83
2023-01-17T15:37:32.004Z,67.23
2023-01-17T15:40:19.359Z,67.28
2023-01-17T15:42:53.461Z,68.39
2023-01-17T15:45:27.728Z,68.48
2023-01-17T15:47:58.590Z,68.16
2023-01-17T15:50:29.415Z,68.61
2023-01-17T15:53:05.037Z,68.96
2023-01-17T15:55:41.141Z,69.24
2023-01-17T15:58:27.198Z,69.82
2023-01-17T16:00:55.069Z,70.15
2023-01-17T16:03:30.288Z,70.10
2023-01-17T16:05:59.673Z,70.61
2023-01-17T16:08:31.995Z,70.60
2023-01-17T16:11:01.780Z,70.83
2023-01-17T16:13:31.491Z,70.81
2023-01-17T16:16:14.174Z,70.96
2023-01-17T16:18:41.664Z,70.57
2023-01-17T16:21:21.569Z,70.95
2023-01-17T16:23:49.211Z,71.33
2023-01-17T16:26:16.650Z,71.63
2023-01-17T16:28:43.890Z,71.41
2023-01-17T16:31:11.391Z,71.37
2023-01-17T16:33:38.920Z,71.13
2023-01-17T16:36:06.260Z,70.59
2023-01-17T16:38:33.283Z,70.38
2023-01-17T16:41:03.940Z,70.69
2023-01-17T16:43:30.995Z,70.63
2023-01-17T16:45:58.029Z,71.16
2023-01-17T16:48:25.094Z,71.41
2023-01-17T16:50:52.415Z,71.52
2023-01-17T16:53:24.709Z,71.41
2023-01-17T16:55:55.566Z,71.36
2023-01-17T16:58:23.021Z,71.32
2023-01-17T17:00:50.381Z,71.25
2023-01-17T17:03:19.466Z,71.28
2023-01-17T17:05:55.902Z,71.14
2023-01-17T17:08:23.688Z,70.96
2023-01-17T17:10:51.063Z,70.81
2023-01-17T17:13:18.089Z,70.45
2023-01-17T17:15:45.334Z,70.43
2023-01-17T17:18:17.258Z,70.44
2023-01-17T17:20:45.011Z,70.28
2023-01-17T17:23:12.059Z,70.28
2023-01-17T17:25:39.530Z,70.22
2023-01-17T17:28:06.585Z,70.17
2023-01-17T17:30:35.535Z,70.34
2023-01-17T17:33:05.637Z,70.49
2023-01-17T17:35:35.850Z,70.18
2023-01-17T17:38:04.910Z,70.02
2023-01-17T17:40:35.524Z,69.77
2023-01-17T17:43:02.466Z,69.60
2023-01-17T17:45:29.416Z,69.57
2023-01-17T17:47:56.452Z,69.35
2023-01-17T17:50:23.534Z,69.34
2023-01-17T17:52:50.474Z,69.37
2023-01-17T17:55:18.442Z,69.29
2023-01-17T17:57:45.639Z,69.24
2023-01-17T18:00:13.085Z,69.36
2023-01-17T18:02:40.108Z,69.29
2023-01-17T18:05:07.376Z,69.69
2023-01-17T18:07:34.408Z,69.76
2023-01-17T18:10:02.131Z,69.79
2023-01-17T18:12:29.125Z,69.95
2023-01-17T18:14:56.150Z,70.27
2023-01-17T18:17:23.232Z,70.71
2023-01-17T18:19:50.378Z,70.92
2023-01-17T18:22:17.316Z,71.34
2023-01-17T18:24:44.290Z,71.81
2023-01-17T18:27:11.236Z,71.69
2023-01-17T18:29:38.274Z,72.20
2023-01-17T18:32:05.351Z,72.66
2023-01-17T18:34:35.062Z,73.18
2023-01-17T18:37:02.147Z,73.68
2023-01-17T18:39:29.863Z,73.58
2023-01-17T18:41:58.173Z,73.81
2023-01-17T18:44:26.831Z,74.20
2023-01-17T18:46:55.222Z,74.50
2023-01-17T18:49:22.706Z,75.15
2023-01-17T18:51:52.264Z,75.17
2023-01-17T18:54:20.377Z,75.25
2023-01-17T18:56:51.199Z,75.05
2023-01-17T18:59:22.783Z,75.03
2023-01-17T19:01:53.283Z,74.60
2023-01-17T19:04:21.026Z,74.53
2023-01-17T19:06:49.144Z,74.74
2023-01-17T19:09:17.275Z,74.40
2023-01-17T19:11:46.760Z,74.11
2023-01-17T19:14:15.116Z,74.29
2023-01-17T19:16:43.803Z,74.36
2023-01-17T19:19:14.260Z,73.99
2023-01-17T19:21:42.356Z,74.41
2023-01-17T19:24:12.377Z,74.14
2023-01-17T19:26:43.015Z,74.10
2023-01-17T19:29:11.694Z,74.35
2023-01-17T19:31:44.466Z,74.54
2023-01-17T19:34:14.097Z,74.32
2023-01-17T19:36:44.851Z,74.76
2023-01-17T19:39:12.755Z,74.46
2023-01-17T19:41:44.783Z,74.24
2023-01-17T19:44:13.560Z,74.59
2023-01-17T19:46:41.393Z,74.50
2023-01-17T19:49:09.258Z,74.50
2023-01-17T19:51:38.718Z,75.10
2023-01-17T19:54:07.649Z,74.69
2023-01-17T19:56:35.716Z,75.30
2023-01-17T19:59:03.411Z,75.46
2023-01-17T20:01:33.222Z,75.39
2023-01-17T20:04:03.624Z,75.74
2023-01-17T20:06:35.795Z,75.84
2023-01-17T20:09:05.479Z,76.35
2023-01-17T20:11:33.325Z,76.34
2023-01-17T20:14:00.863Z,76.55
2023-01-17T20:16:30.823Z,76.88
2023-01-17T20:18:59.586Z,77.64
2023-01-17T20:21:28.578Z,76.99
2023-01-17T20:23:58.091Z,77.53
2023-01-17T20:26:35.292Z,78.20
2023-01-17T20:29:06.893Z,77.37
2023-01-17T20:31:37.776Z,77.81
2023-01-17T20:34:07.731Z,77.86
2023-01-17T20:36:36.395Z,77.78
2023-01-17T20:39:05.878Z,78.13
2023-01-17T20:41:45.063Z,78.16
2023-01-17T20:44:14.663Z,77.82
2023-01-17T20:46:42.749Z,78.46
2023-01-17T20:49:14.187Z,78.02
2023-01-17T20:51:43.543Z,78.28
2023-01-17T20:54:17.289Z,79.16
2023-01-17T20:56:46.762Z,78.94
2023-01-17T20:59:17.331Z,78.85
2023-01-17T21:01:45.601Z,79.71
2023-01-17T21:04:14.110Z,79.82
2023-01-17T21:06:42.804Z,79.82
2023-01-17T21:09:12.663Z,80.02
2023-01-17T21:11:40.084Z,80.52
2023-01-17T21:14:08.215Z,80.79
2023-01-17T21:16:36.131Z,80.81
2023-01-17T21:19:03.572Z,80.76
2023-01-17T21:21:30.922Z,81.13
2023-01-17T21:23:59.042Z,81.05
2023-01-17T21:26:28.080Z,81.23
2023-01-17T21:28:55.774Z,81.09
2023-01-17T21:31:28.560Z,81.45
2023-01-17T21:34:07.350Z,81.71
2023-01-17T21:36:38.062Z,82.40
2023-01-17T21:39:07.714Z,81.71
2023-01-17T21:41:37.650Z,81.73
2023-01-17T21:44:12.628Z,81.43
2023-01-17T21:46:40.675Z,81.14
2023-01-17T21:49:12.477Z,80.72
2023-01-17T21:51:52.367Z,80.74
2023-01-17T21:54:44.198Z,80.59
2023-01-17T21:57:31.906Z,80.65
2023-01-17T21:59:58.966Z,80.82
2023-01-17T22:02:26.122Z,80.35
2023-01-17T22:04:54.103Z,80.65
2023-01-17T22:07:21.460Z,80.45
2023-01-17T22:09:48.383Z,80.82
2023-01-17T22:12:15.341Z,80.69
2023-01-17T22:14:42.317Z,80.86
2023-01-17T22:17:09.283Z,80.87
2023-01-17T22:19:36.279Z,81.20
2023-01-17T22:22:03.448Z,80.67
2023-01-17T22:24:30.423Z,81.39
2023-01-17T22:26:57.471Z,81.02
2023-01-17T22:29:24.438Z,81.03
2023-01-17T22:31:51.375Z,81.13
2023-01-17T22:34:18.431Z,80.95
2023-01-17T22:36:45.493Z,81.04
2023-01-17T22:39:12.505Z,80.76
2023-01-17T22:41:39.644Z,81.10
2023-01-17T22:44:07.068Z,81.23
2023-01-17T22:46:39.962Z,81.44
2023-01-17T22:49:07.867Z,81.23
2023-01-17T22:51:35.286Z,81.29
2023-01-17T22:54:02.331Z,81.20
2023-01-17T22:56:31.907Z,81.23
2023-01-17T22:59:00.157Z,81.46
2023-01-17T23:01:32.243Z,81.56
2023-01-17T23:04:01.405Z,81.29
2023-01-17T23:06:30.760Z,81.43
2023-01-17T23:09:00.728Z,81.99
2023-01-17T23:11:41.774Z,82.19
2023-01-17T23:14:20.311Z,82.47
2023-01-17T23:17:09.285Z,83.35
2023-01-17T23:19:38.947Z,84.05
2023-01-17T23:22:15.610Z,84.21
2023-01-17T23:24:53.819Z,84.17
2023-01-17T23:28:00.721Z,84.05
2023-01-17T23:30:34.907Z,84.43
2023-01-17T23:33:04.621Z,84.35
2023-01-17T23:35:34.136Z,84.51
2023-01-17T23:38:19.531Z,84.40
2023-01-17T23:41:05.491Z,84.55
2023-01-17T23:43:33.527Z,84.68
2023-01-17T23:46:01.133Z,84.58
2023-01-17T23:48:28.532Z,84.75
2023-01-17T23:51:08.926Z,84.65
2023-01-17T23:53:37.974Z,84.41
2023-01-17T23:56:13.175Z,84.23
2023-01-17T23:58:40.220Z,84.13
